sensor_id;sensor_type;location;lat;lon;timestamp;temperature;humidity
7666;DHT22;3875;46.562;4.898;2024-01-16T00:01:10;0.10;94.60
7666;DHT22;3875;46.562;4.898;2024-01-16T00:03:37;0.10;94.60
7666;DHT22;3875;46.562;4.898;2024-01-16T00:06:03;0.10;94.60
7666;DHT22;3875;46.562;4.898;2024-01-16T00:08:29;0.10;94.40
7666;DHT22;3875;46.562;4.898;2024-01-16T00:10:55;0.00;94.50
7666;DHT22;3875;46.562;4.898;2024-01-16T00:13:21;0.00;94.50
7666;DHT22;3875;46.562;4.898;2024-01-16T00:15:46;0.00;94.50
7666;DHT22;3875;46.562;4.898;2024-01-16T00:18:12;0.00;94.50
7666;DHT22;3875;46.562;4.898;2024-01-16T00:20:37;0.00;94.60
7666;DHT22;3875;46.562;4.898;2024-01-16T00:23:03;0.00;94.40
7666;DHT22;3875;46.562;4.898;2024-01-16T00:25:29;0.00;94.40
7666;DHT22;3875;46.562;4.898;2024-01-16T00:27:55;0.00;94.40
7666;DHT22;3875;46.562;4.898;2024-01-16T00:30:20;-0.10;94.40
7666;DHT22;3875;46.562;4.898;2024-01-16T00:32:46;-0.10;94.40
7666;DHT22;3875;46.562;4.898;2024-01-16T00:35:12;-0.20;94.50
7666;DHT22;3875;46.562;4.898;2024-01-16T00:37:38;-0.20;94.60
7666;DHT22;3875;46.562;4.898;2024-01-16T00:40:05;-0.20;94.60
7666;DHT22;3875;46.562;4.898;2024-01-16T00:42:34;-0.20;94.60
7666;DHT22;3875;46.562;4.898;2024-01-16T00:45:00;-0.30;94.70
7666;DHT22;3875;46.562;4.898;2024-01-16T00:47:26;-0.30;94.70
7666;DHT22;3875;46.562;4.898;2024-01-16T00:49:52;-0.30;94.80
7666;DHT22;3875;46.562;4.898;2024-01-16T00:52:18;-0.30;94.80
7666;DHT22;3875;46.562;4.898;2024-01-16T00:54:45;-0.30;94.80
7666;DHT22;3875;46.562;4.898;2024-01-16T00:57:10;-0.30;94.90
7666;DHT22;3875;46.562;4.898;2024-01-16T00:59:37;-0.40;94.80
7666;DHT22;3875;46.562;4.898;2024-01-16T01:02:03;-0.40;94.80
7666;DHT22;3875;46.562;4.898;2024-01-16T01:04:29;-0.40;94.80
7666;DHT22;3875;46.562;4.898;2024-01-16T01:06:55;-0.40;94.80
7666;DHT22;3875;46.562;4.898;2024-01-16T01:09:21;-0.40;94.90
7666;DHT22;3875;46.562;4.898;2024-01-16T01:11:46;-0.50;94.90
7666;DHT22;3875;46.562;4.898;2024-01-16T01:14:12;-0.50;95.00
7666;DHT22;3875;46.562;4.898;2024-01-16T01:16:38;-0.50;95.10
7666;DHT22;3875;46.562;4.898;2024-01-16T01:19:03;-0.50;95.00
7666;DHT22;3875;46.562;4.898;2024-01-16T01:21:29;-0.50;95.00
7666;DHT22;3875;46.562;4.898;2024-01-16T01:23:55;-0.60;95.20
7666;DHT22;3875;46.562;4.898;2024-01-16T01:26:20;-0.60;95.30
7666;DHT22;3875;46.562;4.898;2024-01-16T01:28:46;-0.60;95.40
7666;DHT22;3875;46.562;4.898;2024-01-16T01:31:12;-0.60;95.40
7666;DHT22;3875;46.562;4.898;2024-01-16T01:33:39;-0.60;95.20
7666;DHT22;3875;46.562;4.898;2024-01-16T01:36:05;-0.60;95.20
7666;DHT22;3875;46.562;4.898;2024-01-16T01:38:31;-0.70;95.40
7666;DHT22;3875;46.562;4.898;2024-01-16T01:40:57;-0.70;95.30
7666;DHT22;3875;46.562;4.898;2024-01-16T01:43:24;-0.70;95.20
7666;DHT22;3875;46.562;4.898;2024-01-16T01:48:41;-0.70;95.40
7666;DHT22;3875;46.562;4.898;2024-01-16T01:51:09;-0.70;95.40
7666;DHT22;3875;46.562;4.898;2024-01-16T01:53:36;-0.70;95.50
7666;DHT22;3875;46.562;4.898;2024-01-16T01:56:04;-0.70;95.50
7666;DHT22;3875;46.562;4.898;2024-01-16T01:58:34;-0.70;95.50
7666;DHT22;3875;46.562;4.898;2024-01-16T02:01:01;-0.80;95.40
7666;DHT22;3875;46.562;4.898;2024-01-16T02:03:29;-0.80;95.40
7666;DHT22;3875;46.562;4.898;2024-01-16T02:05:56;-0.80;95.40
7666;DHT22;3875;46.562;4.898;2024-01-16T02:08:22;-0.80;95.40
7666;DHT22;3875;46.562;4.898;2024-01-16T02:10:50;-0.80;95.50
7666;DHT22;3875;46.562;4.898;2024-01-16T02:13:15;-0.80;95.50
7666;DHT22;3875;46.562;4.898;2024-01-16T02:15:45;-0.80;95.50
7666;DHT22;3875;46.562;4.898;2024-01-16T02:18:11;-0.80;95.50
7666;DHT22;3875;46.562;4.898;2024-01-16T02:20:37;-0.90;95.40
7666;DHT22;3875;46.562;4.898;2024-01-16T02:23:03;-0.90;95.50
7666;DHT22;3875;46.562;4.898;2024-01-16T02:25:30;-0.90;95.50
7666;DHT22;3875;46.562;4.898;2024-01-16T02:27:56;-0.90;95.50
7666;DHT22;3875;46.562;4.898;2024-01-16T02:30:21;-0.90;95.50
7666;DHT22;3875;46.562;4.898;2024-01-16T02:32:47;-0.90;95.40
7666;DHT22;3875;46.562;4.898;2024-01-16T02:35:13;-0.90;95.30
7666;DHT22;3875;46.562;4.898;2024-01-16T02:37:38;-1.00;95.40
7666;DHT22;3875;46.562;4.898;2024-01-16T02:40:04;-1.00;95.60
7666;DHT22;3875;46.562;4.898;2024-01-16T02:42:34;-1.00;95.60
7666;DHT22;3875;46.562;4.898;2024-01-16T02:45:01;-1.00;95.60
7666;DHT22;3875;46.562;4.898;2024-01-16T02:47:29;-1.00;95.70
7666;DHT22;3875;46.562;4.898;2024-01-16T02:49:54;-1.00;95.70
7666;DHT22;3875;46.562;4.898;2024-01-16T02:52:20;-1.00;95.60
7666;DHT22;3875;46.562;4.898;2024-01-16T02:54:46;-1.00;95.60
7666;DHT22;3875;46.562;4.898;2024-01-16T02:57:12;-1.10;95.60
7666;DHT22;3875;46.562;4.898;2024-01-16T02:59:37;-1.10;95.70
7666;DHT22;3875;46.562;4.898;2024-01-16T03:02:03;-1.10;95.70
7666;DHT22;3875;46.562;4.898;2024-01-16T03:04:29;-1.10;95.70
7666;DHT22;3875;46.562;4.898;2024-01-16T03:06:55;-1.10;95.70
7666;DHT22;3875;46.562;4.898;2024-01-16T03:09:21;-1.10;95.70
7666;DHT22;3875;46.562;4.898;2024-01-16T03:11:46;-1.20;95.60
7666;DHT22;3875;46.562;4.898;2024-01-16T03:14:12;-1.20;95.60
7666;DHT22;3875;46.562;4.898;2024-01-16T03:16:39;-1.20;95.60
7666;DHT22;3875;46.562;4.898;2024-01-16T03:19:05;-1.20;95.40
7666;DHT22;3875;46.562;4.898;2024-01-16T03:21:30;-1.30;95.60
7666;DHT22;3875;46.562;4.898;2024-01-16T03:23:56;-1.30;95.70
7666;DHT22;3875;46.562;4.898;2024-01-16T03:26:22;-1.30;95.70
7666;DHT22;3875;46.562;4.898;2024-01-16T03:28:47;-1.30;95.60
7666;DHT22;3875;46.562;4.898;2024-01-16T03:31:13;-1.30;95.60
7666;DHT22;3875;46.562;4.898;2024-01-16T03:33:39;-1.30;95.60
7666;DHT22;3875;46.562;4.898;2024-01-16T03:36:08;-1.40;95.60
7666;DHT22;3875;46.562;4.898;2024-01-16T03:38:38;-1.40;95.70
7666;DHT22;3875;46.562;4.898;2024-01-16T03:41:04;-1.40;95.60
7666;DHT22;3875;46.562;4.898;2024-01-16T03:43:34;-1.40;95.80
7666;DHT22;3875;46.562;4.898;2024-01-16T03:46:00;-1.40;95.80
7666;DHT22;3875;46.562;4.898;2024-01-16T03:48:26;-1.40;95.70
7666;DHT22;3875;46.562;4.898;2024-01-16T03:50:52;-1.40;95.70
7666;DHT22;3875;46.562;4.898;2024-01-16T03:53:20;-1.50;95.80
7666;DHT22;3875;46.562;4.898;2024-01-16T03:55:46;-1.50;95.90
7666;DHT22;3875;46.562;4.898;2024-01-16T03:58:12;-1.50;95.90
7666;DHT22;3875;46.562;4.898;2024-01-16T04:00:38;-1.50;96.00
7666;DHT22;3875;46.562;4.898;2024-01-16T04:03:04;-1.50;96.00
7666;DHT22;3875;46.562;4.898;2024-01-16T04:05:29;-1.50;96.00
7666;DHT22;3875;46.562;4.898;2024-01-16T04:07:57;-1.50;96.00
7666;DHT22;3875;46.562;4.898;2024-01-16T04:10:23;-1.50;96.10
7666;DHT22;3875;46.562;4.898;2024-01-16T04:12:48;-1.60;96.10
7666;DHT22;3875;46.562;4.898;2024-01-16T04:15:14;-1.60;96.10
7666;DHT22;3875;46.562;4.898;2024-01-16T04:17:40;-1.60;96.30
7666;DHT22;3875;46.562;4.898;2024-01-16T04:20:06;-1.60;96.40
7666;DHT22;3875;46.562;4.898;2024-01-16T04:22:34;-1.60;96.60
7666;DHT22;3875;46.562;4.898;2024-01-16T04:25:00;-1.60;96.60
7666;DHT22;3875;46.562;4.898;2024-01-16T04:27:26;-1.60;96.50
7666;DHT22;3875;46.562;4.898;2024-01-16T04:29:52;-1.60;96.60
7666;DHT22;3875;46.562;4.898;2024-01-16T04:32:18;-1.70;96.70
7666;DHT22;3875;46.562;4.898;2024-01-16T04:34:44;-1.70;96.70
7666;DHT22;3875;46.562;4.898;2024-01-16T04:37:10;-1.70;96.60
7666;DHT22;3875;46.562;4.898;2024-01-16T04:39:35;-1.60;96.70
7666;DHT22;3875;46.562;4.898;2024-01-16T04:42:01;-1.60;96.60
7666;DHT22;3875;46.562;4.898;2024-01-16T04:44:27;-1.70;96.60
7666;DHT22;3875;46.562;4.898;2024-01-16T04:46:52;-1.70;96.60
7666;DHT22;3875;46.562;4.898;2024-01-16T04:49:18;-1.70;96.60
7666;DHT22;3875;46.562;4.898;2024-01-16T04:51:44;-1.70;96.50
7666;DHT22;3875;46.562;4.898;2024-01-16T04:54:11;-1.70;96.50
7666;DHT22;3875;46.562;4.898;2024-01-16T04:56:37;-1.70;96.60
7666;DHT22;3875;46.562;4.898;2024-01-16T04:59:03;-1.70;96.60
7666;DHT22;3875;46.562;4.898;2024-01-16T05:01:28;-1.80;96.60
7666;DHT22;3875;46.562;4.898;2024-01-16T05:03:54;-1.80;96.60
7666;DHT22;3875;46.562;4.898;2024-01-16T05:06:20;-1.80;96.70
7666;DHT22;3875;46.562;4.898;2024-01-16T05:08:47;-1.80;96.80
7666;DHT22;3875;46.562;4.898;2024-01-16T05:11:12;-1.80;96.70
7666;DHT22;3875;46.562;4.898;2024-01-16T05:13:38;-1.70;96.60
7666;DHT22;3875;46.562;4.898;2024-01-16T05:16:05;-1.80;96.60
7666;DHT22;3875;46.562;4.898;2024-01-16T05:18:31;-1.80;96.70
7666;DHT22;3875;46.562;4.898;2024-01-16T05:20:58;-1.80;96.60
7666;DHT22;3875;46.562;4.898;2024-01-16T05:23:24;-1.80;96.60
7666;DHT22;3875;46.562;4.898;2024-01-16T05:25:50;-1.80;96.60
7666;DHT22;3875;46.562;4.898;2024-01-16T05:28:16;-1.80;96.60
7666;DHT22;3875;46.562;4.898;2024-01-16T05:30:41;-1.80;96.60
7666;DHT22;3875;46.562;4.898;2024-01-16T05:33:08;-1.80;96.70
7666;DHT22;3875;46.562;4.898;2024-01-16T05:35:33;-1.90;96.60
7666;DHT22;3875;46.562;4.898;2024-01-16T05:37:59;-1.90;96.70
7666;DHT22;3875;46.562;4.898;2024-01-16T05:40:26;-1.80;96.80
7666;DHT22;3875;46.562;4.898;2024-01-16T05:42:51;-1.80;96.70
7666;DHT22;3875;46.562;4.898;2024-01-16T05:45:18;-1.80;96.70
7666;DHT22;3875;46.562;4.898;2024-01-16T05:47:43;-1.80;96.60
7666;DHT22;3875;46.562;4.898;2024-01-16T05:50:10;-1.90;96.50
7666;DHT22;3875;46.562;4.898;2024-01-16T05:52:38;-1.90;96.40
7666;DHT22;3875;46.562;4.898;2024-01-16T05:55:06;-1.90;96.40
7666;DHT22;3875;46.562;4.898;2024-01-16T05:57:33;-1.90;96.60
7666;DHT22;3875;46.562;4.898;2024-01-16T05:59:59;-1.90;96.60
7666;DHT22;3875;46.562;4.898;2024-01-16T06:02:28;-1.90;96.70
7666;DHT22;3875;46.562;4.898;2024-01-16T06:04:54;-1.90;96.80
7666;DHT22;3875;46.562;4.898;2024-01-16T06:07:19;-1.90;96.70
7666;DHT22;3875;46.562;4.898;2024-01-16T06:09:45;-1.90;96.70
7666;DHT22;3875;46.562;4.898;2024-01-16T06:12:14;-1.80;96.80
7666;DHT22;3875;46.562;4.898;2024-01-16T06:14:39;-1.90;96.50
7666;DHT22;3875;46.562;4.898;2024-01-16T06:17:06;-1.90;96.50
7666;DHT22;3875;46.562;4.898;2024-01-16T06:19:32;-1.90;96.50
7666;DHT22;3875;46.562;4.898;2024-01-16T06:21:58;-1.90;96.70
7666;DHT22;3875;46.562;4.898;2024-01-16T06:24:25;-2.00;96.70
7666;DHT22;3875;46.562;4.898;2024-01-16T06:26:51;-2.00;96.80
7666;DHT22;3875;46.562;4.898;2024-01-16T06:29:16;-2.00;96.70
7666;DHT22;3875;46.562;4.898;2024-01-16T06:31:42;-2.00;96.70
7666;DHT22;3875;46.562;4.898;2024-01-16T06:34:08;-2.00;96.70
7666;DHT22;3875;46.562;4.898;2024-01-16T06:36:34;-2.00;96.60
7666;DHT22;3875;46.562;4.898;2024-01-16T06:38:59;-2.00;96.70
7666;DHT22;3875;46.562;4.898;2024-01-16T06:41:25;-2.00;96.80
7666;DHT22;3875;46.562;4.898;2024-01-16T06:43:51;-2.00;96.80
7666;DHT22;3875;46.562;4.898;2024-01-16T06:46:17;-2.10;96.90
7666;DHT22;3875;46.562;4.898;2024-01-16T06:48:42;-2.00;96.90
7666;DHT22;3875;46.562;4.898;2024-01-16T06:51:08;-2.00;96.80
7666;DHT22;3875;46.562;4.898;2024-01-16T06:53:36;-2.10;96.80
7666;DHT22;3875;46.562;4.898;2024-01-16T06:56:01;-2.10;96.60
7666;DHT22;3875;46.562;4.898;2024-01-16T06:58:28;-2.20;96.40
7666;DHT22;3875;46.562;4.898;2024-01-16T07:00:54;-2.20;96.30
7666;DHT22;3875;46.562;4.898;2024-01-16T07:03:20;-2.30;96.30
7666;DHT22;3875;46.562;4.898;2024-01-16T07:05:46;-2.30;96.50
7666;DHT22;3875;46.562;4.898;2024-01-16T07:08:12;-2.30;96.60
7666;DHT22;3875;46.562;4.898;2024-01-16T07:10:37;-2.30;96.70
7666;DHT22;3875;46.562;4.898;2024-01-16T07:13:03;-2.30;96.80
7666;DHT22;3875;46.562;4.898;2024-01-16T07:15:29;-2.40;96.80
7666;DHT22;3875;46.562;4.898;2024-01-16T07:17:55;-2.40;96.80
7666;DHT22;3875;46.562;4.898;2024-01-16T07:20:20;-2.30;96.80
7666;DHT22;3875;46.562;4.898;2024-01-16T07:22:46;-2.30;96.80
7666;DHT22;3875;46.562;4.898;2024-01-16T07:25:12;-2.40;96.70
7666;DHT22;3875;46.562;4.898;2024-01-16T07:27:38;-2.40;96.80
7666;DHT22;3875;46.562;4.898;2024-01-16T07:30:05;-2.30;96.90
7666;DHT22;3875;46.562;4.898;2024-01-16T07:32:31;-2.30;96.90
7666;DHT22;3875;46.562;4.898;2024-01-16T07:34:57;-2.30;97.00
7666;DHT22;3875;46.562;4.898;2024-01-16T07:37:23;-2.20;96.90
7666;DHT22;3875;46.562;4.898;2024-01-16T07:39:48;-2.20;96.90
7666;DHT22;3875;46.562;4.898;2024-01-16T07:42:14;-2.20;96.80
7666;DHT22;3875;46.562;4.898;2024-01-16T07:44:40;-2.10;96.80
7666;DHT22;3875;46.562;4.898;2024-01-16T07:47:05;-2.10;96.90
7666;DHT22;3875;46.562;4.898;2024-01-16T07:49:31;-2.00;97.00
7666;DHT22;3875;46.562;4.898;2024-01-16T07:51:57;-1.90;97.00
7666;DHT22;3875;46.562;4.898;2024-01-16T07:54:22;-1.90;96.70
7666;DHT22;3875;46.562;4.898;2024-01-16T07:56:49;-1.90;96.30
7666;DHT22;3875;46.562;4.898;2024-01-16T07:59:15;-1.90;96.00
7666;DHT22;3875;46.562;4.898;2024-01-16T08:01:40;-2.00;96.10
7666;DHT22;3875;46.562;4.898;2024-01-16T08:04:06;-1.90;96.30
7666;DHT22;3875;46.562;4.898;2024-01-16T08:06:32;-1.90;96.50
7666;DHT22;3875;46.562;4.898;2024-01-16T08:08:57;-1.80;96.60
7666;DHT22;3875;46.562;4.898;2024-01-16T08:11:23;-1.70;96.60
7666;DHT22;3875;46.562;4.898;2024-01-16T08:13:49;-1.60;96.50
7666;DHT22;3875;46.562;4.898;2024-01-16T08:16:15;-1.50;96.60
7666;DHT22;3875;46.562;4.898;2024-01-16T08:18:41;-1.40;96.70
7666;DHT22;3875;46.562;4.898;2024-01-16T08:21:06;-1.30;96.70
7666;DHT22;3875;46.562;4.898;2024-01-16T08:23:33;-1.20;96.40
7666;DHT22;3875;46.562;4.898;2024-01-16T08:25:59;-1.10;96.30
7666;DHT22;3875;46.562;4.898;2024-01-16T08:28:26;-1.10;96.20
7666;DHT22;3875;46.562;4.898;2024-01-16T08:30:52;-1.00;96.00
7666;DHT22;3875;46.562;4.898;2024-01-16T08:33:17;-1.00;95.90
7666;DHT22;3875;46.562;4.898;2024-01-16T08:35:43;-0.90;95.90
7666;DHT22;3875;46.562;4.898;2024-01-16T08:38:10;-0.90;95.90
7666;DHT22;3875;46.562;4.898;2024-01-16T08:40:35;-0.90;95.50
7666;DHT22;3875;46.562;4.898;2024-01-16T08:43:01;-0.90;95.40
7666;DHT22;3875;46.562;4.898;2024-01-16T08:45:27;-0.90;95.50
7666;DHT22;3875;46.562;4.898;2024-01-16T08:47:53;-0.90;95.70
7666;DHT22;3875;46.562;4.898;2024-01-16T08:50:18;-0.90;95.50
7666;DHT22;3875;46.562;4.898;2024-01-16T08:52:44;-0.90;95.50
7666;DHT22;3875;46.562;4.898;2024-01-16T08:55:12;-1.00;95.70
7666;DHT22;3875;46.562;4.898;2024-01-16T08:57:38;-1.00;95.70
7666;DHT22;3875;46.562;4.898;2024-01-16T09:00:07;-1.00;96.00
7666;DHT22;3875;46.562;4.898;2024-01-16T09:02:36;-1.00;96.00
7666;DHT22;3875;46.562;4.898;2024-01-16T09:05:01;-0.90;95.90
7666;DHT22;3875;46.562;4.898;2024-01-16T09:07:27;-1.00;96.00
7666;DHT22;3875;46.562;4.898;2024-01-16T09:09:53;-0.90;95.90
7666;DHT22;3875;46.562;4.898;2024-01-16T09:12:19;-1.00;95.80
7666;DHT22;3875;46.562;4.898;2024-01-16T09:14:45;-1.00;95.90
7666;DHT22;3875;46.562;4.898;2024-01-16T09:17:10;-0.90;96.10
7666;DHT22;3875;46.562;4.898;2024-01-16T09:19:36;-0.90;96.10
7666;DHT22;3875;46.562;4.898;2024-01-16T09:22:02;-0.90;96.30
7666;DHT22;3875;46.562;4.898;2024-01-16T09:24:29;-0.80;96.30
7666;DHT22;3875;46.562;4.898;2024-01-16T09:26:54;-0.80;96.10
7666;DHT22;3875;46.562;4.898;2024-01-16T09:29:20;-0.80;96.10
7666;DHT22;3875;46.562;4.898;2024-01-16T09:31:47;-0.70;96.30
7666;DHT22;3875;46.562;4.898;2024-01-16T09:34:13;-0.70;96.10
7666;DHT22;3875;46.562;4.898;2024-01-16T09:36:39;-0.70;96.10
7666;DHT22;3875;46.562;4.898;2024-01-16T09:39:06;-0.60;96.20
7666;DHT22;3875;46.562;4.898;2024-01-16T09:41:37;-0.70;95.70
7666;DHT22;3875;46.562;4.898;2024-01-16T09:44:03;-0.80;95.80
7666;DHT22;3875;46.562;4.898;2024-01-16T09:46:31;-0.80;96.00
7666;DHT22;3875;46.562;4.898;2024-01-16T09:48:57;-0.80;96.30
7666;DHT22;3875;46.562;4.898;2024-01-16T09:51:28;-0.80;96.30
7666;DHT22;3875;46.562;4.898;2024-01-16T09:53:54;-0.70;96.70
7666;DHT22;3875;46.562;4.898;2024-01-16T09:56:22;-0.60;96.80
7666;DHT22;3875;46.562;4.898;2024-01-16T09:58:57;-0.50;96.50
7666;DHT22;3875;46.562;4.898;2024-01-16T10:01:26;-0.50;96.20
7666;DHT22;3875;46.562;4.898;2024-01-16T10:03:53;-0.50;96.40
7666;DHT22;3875;46.562;4.898;2024-01-16T10:06:19;-0.50;96.30
7666;DHT22;3875;46.562;4.898;2024-01-16T10:08:46;-0.50;95.90
7666;DHT22;3875;46.562;4.898;2024-01-16T10:11:11;-0.50;96.00
7666;DHT22;3875;46.562;4.898;2024-01-16T10:13:37;-0.60;96.00
7666;DHT22;3875;46.562;4.898;2024-01-16T10:16:03;-0.50;96.30
7666;DHT22;3875;46.562;4.898;2024-01-16T10:18:29;-0.50;96.40
7666;DHT22;3875;46.562;4.898;2024-01-16T10:20:56;-0.50;96.50
7666;DHT22;3875;46.562;4.898;2024-01-16T10:23:23;-0.50;96.40
7666;DHT22;3875;46.562;4.898;2024-01-16T10:26:10;-0.50;96.50
7666;DHT22;3875;46.562;4.898;2024-01-16T10:28:41;-0.40;96.70
7666;DHT22;3875;46.562;4.898;2024-01-16T10:31:11;-0.40;96.70
7666;DHT22;3875;46.562;4.898;2024-01-16T10:33:38;-0.40;96.60
7666;DHT22;3875;46.562;4.898;2024-01-16T10:36:14;-0.40;96.40
7666;DHT22;3875;46.562;4.898;2024-01-16T10:38:42;-0.40;96.40
7666;DHT22;3875;46.562;4.898;2024-01-16T10:41:11;-0.40;96.60
7666;DHT22;3875;46.562;4.898;2024-01-16T10:43:37;-0.50;96.50
7666;DHT22;3875;46.562;4.898;2024-01-16T10:46:18;-0.50;96.50
7666;DHT22;3875;46.562;4.898;2024-01-16T10:48:54;-0.60;96.60
7666;DHT22;3875;46.562;4.898;2024-01-16T10:51:23;-0.60;96.80
7666;DHT22;3875;46.562;4.898;2024-01-16T10:54:02;-0.60;97.10
7666;DHT22;3875;46.562;4.898;2024-01-16T10:56:31;-0.50;97.30
7666;DHT22;3875;46.562;4.898;2024-01-16T11:01:53;-0.40;97.50
7666;DHT22;3875;46.562;4.898;2024-01-16T11:04:20;-0.30;97.20
7666;DHT22;3875;46.562;4.898;2024-01-16T11:06:47;-0.30;97.10
7666;DHT22;3875;46.562;4.898;2024-01-16T11:09:14;-0.40;97.00
7666;DHT22;3875;46.562;4.898;2024-01-16T11:11:46;-0.40;97.50
7666;DHT22;3875;46.562;4.898;2024-01-16T11:14:13;-0.30;97.50
7666;DHT22;3875;46.562;4.898;2024-01-16T11:16:39;-0.40;97.50
7666;DHT22;3875;46.562;4.898;2024-01-16T11:19:08;-0.40;97.50
7666;DHT22;3875;46.562;4.898;2024-01-16T11:21:36;-0.40;97.70
7666;DHT22;3875;46.562;4.898;2024-01-16T11:24:02;-0.30;97.90
7666;DHT22;3875;46.562;4.898;2024-01-16T11:26:35;-0.20;97.80
7666;DHT22;3875;46.562;4.898;2024-01-16T11:31:53;-0.20;97.50
7666;DHT22;3875;46.562;4.898;2024-01-16T11:37:13;-0.20;97.70
7666;DHT22;3875;46.562;4.898;2024-01-16T11:39:39;-0.20;97.70
7666;DHT22;3875;46.562;4.898;2024-01-16T11:42:08;-0.20;97.90
7666;DHT22;3875;46.562;4.898;2024-01-16T11:47:05;-0.30;97.70
7666;DHT22;3875;46.562;4.898;2024-01-16T11:49:31;-0.30;97.80
7666;DHT22;3875;46.562;4.898;2024-01-16T11:51:58;-0.30;98.00
7666;DHT22;3875;46.562;4.898;2024-01-16T11:54:23;-0.30;98.20
7666;DHT22;3875;46.562;4.898;2024-01-16T12:00:02;-0.20;98.50
7666;DHT22;3875;46.562;4.898;2024-01-16T12:05:11;0.00;98.60
7666;DHT22;3875;46.562;4.898;2024-01-16T12:07:50;0.10;98.60
7666;DHT22;3875;46.562;4.898;2024-01-16T12:10:19;0.20;98.60
7666;DHT22;3875;46.562;4.898;2024-01-16T12:12:46;0.30;98.20
7666;DHT22;3875;46.562;4.898;2024-01-16T12:15:16;0.30;98.00
7666;DHT22;3875;46.562;4.898;2024-01-16T12:17:59;0.40;98.00
7666;DHT22;3875;46.562;4.898;2024-01-16T12:20:29;0.50;98.00
7666;DHT22;3875;46.562;4.898;2024-01-16T12:22:56;0.50;97.70
7666;DHT22;3875;46.562;4.898;2024-01-16T12:25:22;0.60;97.50
7666;DHT22;3875;46.562;4.898;2024-01-16T12:28:08;0.60;97.50
7666;DHT22;3875;46.562;4.898;2024-01-16T12:30:38;0.60;97.40
7666;DHT22;3875;46.562;4.898;2024-01-16T12:33:09;0.60;97.50
7666;DHT22;3875;46.562;4.898;2024-01-16T12:35:36;0.60;97.50
7666;DHT22;3875;46.562;4.898;2024-01-16T12:38:03;0.60;97.30
7666;DHT22;3875;46.562;4.898;2024-01-16T12:40:32;0.60;97.30
7666;DHT22;3875;46.562;4.898;2024-01-16T12:42:58;0.70;97.40
7666;DHT22;3875;46.562;4.898;2024-01-16T12:45:23;0.70;97.40
7666;DHT22;3875;46.562;4.898;2024-01-16T12:47:53;0.70;97.40
7666;DHT22;3875;46.562;4.898;2024-01-16T12:50:22;0.60;97.30
7666;DHT22;3875;46.562;4.898;2024-01-16T12:53:03;0.60;97.40
7666;DHT22;3875;46.562;4.898;2024-01-16T12:55:30;0.60;97.50
7666;DHT22;3875;46.562;4.898;2024-01-16T12:58:16;0.60;97.50
7666;DHT22;3875;46.562;4.898;2024-01-16T13:00:49;0.60;97.40
7666;DHT22;3875;46.562;4.898;2024-01-16T13:03:34;0.60;97.50
7666;DHT22;3875;46.562;4.898;2024-01-16T13:06:01;0.60;97.50
7666;DHT22;3875;46.562;4.898;2024-01-16T13:08:27;0.60;97.50
7666;DHT22;3875;46.562;4.898;2024-01-16T13:11:04;0.50;97.70
7666;DHT22;3875;46.562;4.898;2024-01-16T13:13:30;0.50;97.90
7666;DHT22;3875;46.562;4.898;2024-01-16T13:15:57;0.50;97.90
7666;DHT22;3875;46.562;4.898;2024-01-16T13:18:24;0.50;97.70
7666;DHT22;3875;46.562;4.898;2024-01-16T13:20:52;0.40;98.00
7666;DHT22;3875;46.562;4.898;2024-01-16T13:23:19;0.50;98.10
7666;DHT22;3875;46.562;4.898;2024-01-16T13:25:46;0.50;98.10
7666;DHT22;3875;46.562;4.898;2024-01-16T13:28:16;0.50;98.30
7666;DHT22;3875;46.562;4.898;2024-01-16T13:30:43;0.60;98.40
7666;DHT22;3875;46.562;4.898;2024-01-16T13:33:08;0.60;98.30
7666;DHT22;3875;46.562;4.898;2024-01-16T13:35:42;0.60;98.40
7666;DHT22;3875;46.562;4.898;2024-01-16T13:38:09;0.60;98.20
7666;DHT22;3875;46.562;4.898;2024-01-16T13:40:37;0.60;98.30
7666;DHT22;3875;46.562;4.898;2024-01-16T13:43:03;0.60;98.30
7666;DHT22;3875;46.562;4.898;2024-01-16T13:45:29;0.60;98.30
7666;DHT22;3875;46.562;4.898;2024-01-16T13:47:56;0.60;98.30
7666;DHT22;3875;46.562;4.898;2024-01-16T13:50:22;0.60;98.30
7666;DHT22;3875;46.562;4.898;2024-01-16T13:52:48;0.60;98.40
7666;DHT22;3875;46.562;4.898;2024-01-16T13:55:14;0.60;98.60
7666;DHT22;3875;46.562;4.898;2024-01-16T13:57:40;0.60;98.60
7666;DHT22;3875;46.562;4.898;2024-01-16T14:00:12;0.70;98.60
7666;DHT22;3875;46.562;4.898;2024-01-16T14:02:41;0.70;98.60
7666;DHT22;3875;46.562;4.898;2024-01-16T14:05:14;0.70;98.60
7666;DHT22;3875;46.562;4.898;2024-01-16T14:07:47;0.70;98.60
7666;DHT22;3875;46.562;4.898;2024-01-16T14:10:16;0.70;98.60
7666;DHT22;3875;46.562;4.898;2024-01-16T14:12:42;0.70;98.50
7666;DHT22;3875;46.562;4.898;2024-01-16T14:15:09;0.70;98.60
7666;DHT22;3875;46.562;4.898;2024-01-16T14:17:45;0.70;98.60
7666;DHT22;3875;46.562;4.898;2024-01-16T14:20:12;0.70;98.50
7666;DHT22;3875;46.562;4.898;2024-01-16T14:22:38;0.70;98.60
7666;DHT22;3875;46.562;4.898;2024-01-16T14:25:08;0.70;98.60
7666;DHT22;3875;46.562;4.898;2024-01-16T14:27:39;0.70;98.60
7666;DHT22;3875;46.562;4.898;2024-01-16T14:30:07;0.70;98.60
7666;DHT22;3875;46.562;4.898;2024-01-16T14:32:33;0.70;98.60
7666;DHT22;3875;46.562;4.898;2024-01-16T14:34:59;0.70;98.60
7666;DHT22;3875;46.562;4.898;2024-01-16T14:37:25;0.70;98.60
7666;DHT22;3875;46.562;4.898;2024-01-16T14:39:51;0.70;98.60
7666;DHT22;3875;46.562;4.898;2024-01-16T14:42:17;0.60;98.60
7666;DHT22;3875;46.562;4.898;2024-01-16T14:44:42;0.60;98.60
7666;DHT22;3875;46.562;4.898;2024-01-16T14:47:08;0.60;98.60
7666;DHT22;3875;46.562;4.898;2024-01-16T14:49:34;0.60;98.60
7666;DHT22;3875;46.562;4.898;2024-01-16T14:52:00;0.60;98.60
7666;DHT22;3875;46.562;4.898;2024-01-16T14:54:26;0.60;98.60
7666;DHT22;3875;46.562;4.898;2024-01-16T14:56:52;0.60;98.60
7666;DHT22;3875;46.562;4.898;2024-01-16T14:59:17;0.60;98.60
7666;DHT22;3875;46.562;4.898;2024-01-16T15:01:43;0.60;98.60
7666;DHT22;3875;46.562;4.898;2024-01-16T15:04:10;0.60;98.60
7666;DHT22;3875;46.562;4.898;2024-01-16T15:06:35;0.60;98.60
7666;DHT22;3875;46.562;4.898;2024-01-16T15:09:01;0.60;98.60
7666;DHT22;3875;46.562;4.898;2024-01-16T15:11:27;0.60;98.60
7666;DHT22;3875;46.562;4.898;2024-01-16T15:13:52;0.60;98.60
7666;DHT22;3875;46.562;4.898;2024-01-16T15:16:18;0.60;98.60
7666;DHT22;3875;46.562;4.898;2024-01-16T15:18:43;0.60;98.60
7666;DHT22;3875;46.562;4.898;2024-01-16T15:21:09;0.60;98.60
7666;DHT22;3875;46.562;4.898;2024-01-16T15:23:35;0.60;98.60
7666;DHT22;3875;46.562;4.898;2024-01-16T15:26:01;0.70;98.60
7666;DHT22;3875;46.562;4.898;2024-01-16T15:28:30;0.70;98.60
7666;DHT22;3875;46.562;4.898;2024-01-16T15:30:55;0.70;98.60
7666;DHT22;3875;46.562;4.898;2024-01-16T15:33:21;0.70;98.60
7666;DHT22;3875;46.562;4.898;2024-01-16T15:35:47;0.80;98.60
7666;DHT22;3875;46.562;4.898;2024-01-16T15:38:12;0.80;98.60
7666;DHT22;3875;46.562;4.898;2024-01-16T15:40:38;0.80;98.60
7666;DHT22;3875;46.562;4.898;2024-01-16T15:43:04;0.80;98.60
7666;DHT22;3875;46.562;4.898;2024-01-16T15:45:30;0.80;98.60
7666;DHT22;3875;46.562;4.898;2024-01-16T15:47:56;0.80;98.60
7666;DHT22;3875;46.562;4.898;2024-01-16T15:50:21;0.80;98.60
7666;DHT22;3875;46.562;4.898;2024-01-16T15:52:48;0.80;98.60
7666;DHT22;3875;46.562;4.898;2024-01-16T15:55:14;0.80;98.60
7666;DHT22;3875;46.562;4.898;2024-01-16T15:57:40;0.80;98.60
7666;DHT22;3875;46.562;4.898;2024-01-16T16:00:07;0.80;98.60
7666;DHT22;3875;46.562;4.898;2024-01-16T16:02:35;0.80;98.60
7666;DHT22;3875;46.562;4.898;2024-01-16T16:05:02;0.80;98.60
7666;DHT22;3875;46.562;4.898;2024-01-16T16:07:27;0.80;98.60
7666;DHT22;3875;46.562;4.898;2024-01-16T16:09:53;0.80;98.60
7666;DHT22;3875;46.562;4.898;2024-01-16T16:12:19;0.80;98.60
7666;DHT22;3875;46.562;4.898;2024-01-16T16:14:45;0.80;98.60
7666;DHT22;3875;46.562;4.898;2024-01-16T16:17:10;0.80;98.60
7666;DHT22;3875;46.562;4.898;2024-01-16T16:19:37;0.80;98.60
7666;DHT22;3875;46.562;4.898;2024-01-16T16:22:05;0.80;98.60
7666;DHT22;3875;46.562;4.898;2024-01-16T16:24:32;0.80;98.60